Time;durP1;ratioP1;P1;durP2;ratioP2;P2;SDS_P1;SDS_P2;PMS_P1;PMS_P2;Temp;Humidity;BMP_temperature;BMP_pressure;BME280_temperature;BME280_humidity;BME280_pressure;Samples;Min_cycle;Max_cycle;Signal;HPM_P1;HPM_P2
2023/08/17 00:00:24;;;;;;;3.17;0.60;;;18.70;99.90;;;;;;4994557;28;20026;-92
2023/08/17 00:02:50;;;;;;;2.92;0.68;;;18.70;99.90;;;;;;4998086;28;20057;-92
2023/08/17 00:05:15;;;;;;;5.80;1.10;;;18.60;99.90;;;;;;4995533;28;20474;-92
2023/08/17 00:07:41;;;;;;;2.38;0.65;;;18.70;99.90;;;;;;4994044;28;20029;-92
2023/08/17 00:10:06;;;;;;;2.50;0.50;;;18.60;99.90;;;;;;4995155;28;20069;-91
2023/08/17 00:12:32;;;;;;;5.85;0.80;;;18.60;99.90;;;;;;4990708;28;20030;-92
2023/08/17 00:14:57;;;;;;;2.35;1.02;;;18.60;99.90;;;;;;4993756;28;20398;-93
2023/08/17 00:17:23;;;;;;;4.85;1.02;;;18.60;99.90;;;;;;4994576;28;20033;-92
2023/08/17 00:19:49;;;;;;;3.78;0.90;;;18.50;99.90;;;;;;4993344;28;20034;-92
2023/08/17 00:22:15;;;;;;;4.55;0.65;;;18.60;99.90;;;;;;4993680;28;20022;-92
2023/08/17 00:24:44;;;;;;;6.85;1.00;;;18.50;99.90;;;;;;4994497;28;20029;-92
2023/08/17 00:27:09;;;;;;;2.10;0.77;;;18.60;99.90;;;;;;4995040;28;20553;-91
2023/08/17 00:29:35;;;;;;;2.53;0.50;;;18.50;99.90;;;;;;4994397;28;20129;-91
2023/08/17 00:32:01;;;;;;;2.95;0.70;;;18.50;99.90;;;;;;4991752;28;20402;-92
2023/08/17 00:34:27;;;;;;;1.63;0.60;;;18.50;99.90;;;;;;4994464;28;20465;-92
2023/08/17 00:36:53;;;;;;;5.95;0.60;;;18.50;99.90;;;;;;4993361;28;20022;-92
2023/08/17 00:39:19;;;;;;;3.08;0.60;;;18.50;99.90;;;;;;4991228;28;20034;-92
2023/08/17 00:41:45;;;;;;;2.58;0.50;;;18.50;99.90;;;;;;4992829;28;20034;-91
2023/08/17 00:44:11;;;;;;;3.85;1.15;;;18.50;99.90;;;;;;4994544;28;20044;-91
2023/08/17 00:46:37;;;;;;;4.28;0.80;;;18.50;99.90;;;;;;4993594;28;20026;-91
2023/08/17 00:49:03;;;;;;;3.80;0.88;;;18.60;99.90;;;;;;4991110;28;20360;-91
2023/08/17 00:51:29;;;;;;;5.05;0.65;;;18.50;99.90;;;;;;4993983;28;20018;-91
2023/08/17 00:53:58;;;;;;;3.67;0.50;;;18.50;99.90;;;;;;4980201;28;20030;-92
2023/08/17 00:56:24;;;;;;;4.38;0.75;;;18.50;99.90;;;;;;4990323;28;20421;-91
2023/08/17 00:58:50;;;;;;;6.70;0.85;;;18.50;99.90;;;;;;5001427;28;20116;-92
2023/08/17 01:01:16;;;;;;;3.10;0.85;;;18.50;99.90;;;;;;4994190;28;20029;-92
2023/08/17 01:03:42;;;;;;;6.93;0.95;;;18.50;99.90;;;;;;4993716;28;20482;-92
2023/08/17 01:06:09;;;;;;;6.70;0.73;;;18.50;99.90;;;;;;4993377;28;20034;-92
2023/08/17 01:08:36;;;;;;;2.50;0.70;;;18.50;99.90;;;;;;4992367;28;20120;-92
2023/08/17 01:11:12;;;;;;;5.55;0.85;;;18.40;99.90;;;;;;4994824;28;20038;-92
2023/08/17 01:13:56;;;;;;;4.63;0.95;;;18.50;99.90;;;;;;5001834;28;20034;-93
2023/08/17 01:16:47;;;;;;;6.30;1.33;;;18.40;99.90;;;;;;4991252;28;20034;-92
2023/08/17 01:19:24;;;;;;;2.40;0.52;;;18.40;99.90;;;;;;4986886;28;20018;-92
2023/08/17 01:21:53;;;;;;;2.47;0.85;;;18.30;99.90;;;;;;4986111;28;20075;-92
2023/08/17 01:24:19;;;;;;;3.60;0.60;;;18.30;99.90;;;;;;4994094;28;20460;-92
2023/08/17 01:26:44;;;;;;;4.53;0.70;;;18.30;99.90;;;;;;4977189;28;20129;-92
2023/08/17 01:29:10;;;;;;;3.83;0.70;;;18.20;99.90;;;;;;4993170;28;20034;-92
2023/08/17 01:32:02;;;;;;;3.88;0.60;;;18.20;99.90;;;;;;4993772;28;20084;-92
2023/08/17 01:34:29;;;;;;;;;;;18.20;99.90;;;;;;4993635;28;20466;-93
2023/08/17 01:36:59;;;;;;;5.93;0.82;;;18.10;99.90;;;;;;4993013;28;19913;-93
2023/08/17 01:39:37;;;;;;;3.35;0.80;;;18.10;99.90;;;;;;4982099;28;20027;-92
2023/08/17 01:42:05;;;;;;;5.40;0.90;;;18.10;99.90;;;;;;4993429;28;20479;-92
2023/08/17 01:44:30;;;;;;;3.80;0.90;;;18.00;99.90;;;;;;4993860;28;20030;-92
2023/08/17 01:46:56;;;;;;;3.65;0.70;;;18.00;99.90;;;;;;4993685;28;20490;-93
2023/08/17 01:49:22;;;;;;;2.00;0.85;;;18.00;99.90;;;;;;4992525;28;20041;-92
2023/08/17 01:51:47;;;;;;;3.50;0.73;;;18.00;99.90;;;;;;4991939;28;20029;-92
2023/08/17 01:54:13;;;;;;;6.18;1.25;;;17.90;99.90;;;;;;4994144;28;20046;-93
2023/08/17 01:56:38;;;;;;;6.25;0.88;;;17.90;99.90;;;;;;4992787;28;20100;-92
2023/08/17 01:59:04;;;;;;;2.40;0.80;;;17.80;99.90;;;;;;4988849;28;20026;-92
2023/08/17 02:01:30;;;;;;;5.13;0.90;;;17.80;99.90;;;;;;4990989;28;20029;-92
2023/08/17 02:03:55;;;;;;;3.92;0.80;;;17.70;99.90;;;;;;4978289;28;20026;-92
2023/08/17 02:06:21;;;;;;;4.70;1.25;;;17.60;99.90;;;;;;4985747;28;20022;-93
2023/08/17 02:08:46;;;;;;;3.47;0.90;;;17.50;99.90;;;;;;4991129;28;20026;-92
2023/08/17 02:11:12;;;;;;;5.65;1.00;;;17.40;99.90;;;;;;4991676;28;20037;-92
2023/08/17 02:13:37;;;;;;;5.40;1.20;;;17.30;99.90;;;;;;4992683;28;20441;-92
2023/08/17 02:16:04;;;;;;;3.22;0.77;;;17.30;99.90;;;;;;4993088;28;20022;-92
2023/08/17 02:18:31;;;;;;;6.63;1.13;;;17.30;99.90;;;;;;4992487;28;20026;-92
2023/08/17 02:20:57;;;;;;;4.40;0.90;;;17.20;99.90;;;;;;4992149;28;20038;-92
2023/08/17 02:23:23;;;;;;;4.55;1.05;;;17.20;99.90;;;;;;4992254;28;20037;-92
2023/08/17 02:25:49;;;;;;;4.00;0.90;;;17.20;99.90;;;;;;4994534;28;20117;-92
2023/08/17 02:28:14;;;;;;;4.40;0.93;;;17.10;99.90;;;;;;4991287;28;20018;-92
2023/08/17 02:30:40;;;;;;;4.70;1.25;;;17.10;99.90;;;;;;4992180;28;20038;-91
2023/08/17 02:33:05;;;;;;;4.30;1.10;;;17.10;99.90;;;;;;4992674;28;20033;-92
2023/08/17 02:35:31;;;;;;;2.03;0.93;;;17.10;99.90;;;;;;4995700;28;20056;-92
2023/08/17 02:37:56;;;;;;;3.50;1.30;;;17.10;99.90;;;;;;4996545;28;20033;-92
2023/08/17 02:40:22;;;;;;;3.65;1.15;;;17.20;99.90;;;;;;4993493;28;20026;-92
2023/08/17 02:42:47;;;;;;;4.38;1.30;;;17.10;99.90;;;;;;4996238;28;20030;-92
2023/08/17 02:45:13;;;;;;;3.75;0.82;;;17.10;99.90;;;;;;4996036;28;20490;-92
2023/08/17 02:47:38;;;;;;;2.63;0.90;;;17.10;99.90;;;;;;4990769;28;20467;-92
2023/08/17 02:50:05;;;;;;;6.95;1.08;;;17.10;99.90;;;;;;4994689;28;20037;-92
2023/08/17 02:52:30;;;;;;;4.13;0.98;;;17.10;99.90;;;;;;4996907;28;20116;-92
2023/08/17 02:54:56;;;;;;;4.38;1.13;;;17.10;99.90;;;;;;4993763;28;20570;-93
2023/08/17 02:57:21;;;;;;;2.60;1.15;;;17.10;99.90;;;;;;4993729;28;20026;-92
2023/08/17 02:59:47;;;;;;;3.63;1.10;;;17.10;99.90;;;;;;4994773;28;20033;-92
2023/08/17 03:02:13;;;;;;;6.30;1.15;;;17.10;99.90;;;;;;4994861;28;20421;-93
2023/08/17 03:04:38;;;;;;;5.97;1.20;;;17.00;99.90;;;;;;4995528;28;20065;-92
2023/08/17 03:07:04;;;;;;;6.50;1.30;;;17.00;99.90;;;;;;4993699;28;20028;-92
2023/08/17 03:09:29;;;;;;;7.57;2.08;;;16.90;99.90;;;;;;4995287;28;20033;-93
2023/08/17 03:11:55;;;;;;;5.55;0.90;;;16.90;99.90;;;;;;4994356;28;20026;-92
2023/08/17 03:14:20;;;;;;;5.10;1.50;;;16.90;99.90;;;;;;4996120;28;20030;-92
2023/08/17 03:16:46;;;;;;;6.32;1.50;;;16.80;99.90;;;;;;4995672;28;20474;-91
2023/08/17 03:19:11;;;;;;;3.03;0.90;;;16.80;99.90;;;;;;4995194;28;20060;-92
2023/08/17 03:21:38;;;;;;;6.82;1.15;;;16.70;99.90;;;;;;4995619;28;20478;-92
2023/08/17 03:24:04;;;;;;;3.85;1.08;;;16.70;99.90;;;;;;4991696;28;20026;-92
2023/08/17 03:26:29;;;;;;;5.35;1.25;;;16.60;99.90;;;;;;4996581;28;20034;-92
2023/08/17 03:28:55;;;;;;;5.28;1.17;;;16.60;99.90;;;;;;4994294;28;20033;-91
2023/08/17 03:31:21;;;;;;;5.05;1.30;;;16.60;99.90;;;;;;4994366;28;20104;-93
2023/08/17 03:33:47;;;;;;;5.38;1.15;;;16.50;99.90;;;;;;4993784;28;20478;-92
2023/08/17 03:36:13;;;;;;;3.92;1.20;;;16.50;99.90;;;;;;4994991;28;20049;-92
2023/08/17 03:38:39;;;;;;;4.47;1.02;;;16.50;99.90;;;;;;4995044;28;20033;-92
2023/08/17 03:41:05;;;;;;;3.90;1.25;;;16.40;99.90;;;;;;4994717;28;20095;-92
2023/08/17 03:43:30;;;;;;;3.40;1.05;;;16.40;99.90;;;;;;4995005;28;20026;-92
2023/08/17 03:45:56;;;;;;;5.20;1.17;;;16.40;99.90;;;;;;4989068;28;20026;-92
2023/08/17 03:48:22;;;;;;;3.70;1.00;;;16.40;99.90;;;;;;4995552;28;20026;-92
2023/08/17 03:50:54;;;;;;;8.32;1.10;;;16.40;99.90;;;;;;4990176;28;20030;-92
2023/08/17 03:53:20;;;;;;;5.35;0.90;;;16.40;99.90;;;;;;4995745;28;20482;-92
2023/08/17 03:55:50;;;;;;;5.38;0.90;;;16.40;99.90;;;;;;4993104;28;20049;-92
2023/08/17 03:58:16;;;;;;;3.72;1.00;;;16.40;99.90;;;;;;5007780;28;20022;-92
2023/08/17 04:00:42;;;;;;;5.70;1.25;;;16.40;99.90;;;;;;4994632;28;20033;-92
2023/08/17 04:03:08;;;;;;;5.75;1.20;;;16.50;99.90;;;;;;4994153;28;20026;-91
2023/08/17 04:05:33;;;;;;;9.38;0.82;;;16.50;99.90;;;;;;4992803;28;20390;-92
2023/08/17 04:08:02;;;;;;;5.93;0.90;;;16.50;99.90;;;;;;4999328;28;20063;-92
2023/08/17 04:10:28;;;;;;;2.92;0.80;;;16.50;99.90;;;;;;4994675;28;20383;-92
2023/08/17 04:12:54;;;;;;;9.57;1.85;;;16.50;99.90;;;;;;4995295;28;20030;-92
2023/08/17 04:15:19;;;;;;;5.47;1.10;;;16.60;99.90;;;;;;4992470;28;20040;-91
2023/08/17 04:17:45;;;;;;;3.70;1.13;;;16.60;99.90;;;;;;4994585;28;20027;-91
2023/08/17 04:20:11;;;;;;;3.30;0.80;;;16.60;99.90;;;;;;4993990;28;20030;-91
2023/08/17 04:22:36;;;;;;;2.20;0.88;;;16.60;99.90;;;;;;4994279;28;20030;-91
2023/08/17 04:25:02;;;;;;;5.00;1.23;;;16.60;99.90;;;;;;4994619;28;20036;-91
2023/08/17 04:27:28;;;;;;;3.17;1.00;;;16.60;99.90;;;;;;4995184;28;20160;-91
2023/08/17 04:29:53;;;;;;;3.95;1.30;;;16.60;99.90;;;;;;4994815;28;20045;-92
2023/08/17 04:32:19;;;;;;;4.20;1.00;;;16.60;99.90;;;;;;4993048;28;20028;-91
2023/08/17 04:34:46;;;;;;;6.53;1.60;;;16.60;99.90;;;;;;4995196;28;20034;-91
2023/08/17 04:37:11;;;;;;;5.38;1.05;;;16.50;99.90;;;;;;4994759;28;20021;-92
2023/08/17 04:39:37;;;;;;;6.13;1.50;;;16.50;99.90;;;;;;4995735;28;20022;-91
2023/08/17 04:42:03;;;;;;;7.32;1.48;;;16.40;99.90;;;;;;4992212;28;20025;-92
2023/08/17 04:44:29;;;;;;;5.05;1.30;;;16.40;99.90;;;;;;5007448;28;20135;-92
2023/08/17 04:46:54;;;;;;;2.83;1.10;;;16.30;99.90;;;;;;5001894;28;20133;-91
2023/08/17 04:49:20;;;;;;;5.78;1.52;;;16.30;99.90;;;;;;4998203;28;20048;-91
2023/08/17 04:51:45;;;;;;;6.47;1.42;;;16.20;99.90;;;;;;4991532;28;20025;-91
2023/08/17 04:54:11;;;;;;;7.65;1.60;;;16.20;99.90;;;;;;4997504;28;20044;-91
2023/08/17 04:56:36;;;;;;;5.90;1.45;;;16.20;99.90;;;;;;4982208;28;20030;-93
2023/08/17 04:59:02;;;;;;;5.95;1.50;;;16.20;99.90;;;;;;5005599;28;20044;-92
2023/08/17 05:01:27;;;;;;;5.35;1.48;;;16.20;99.90;;;;;;4991442;28;20026;-91
2023/08/17 05:03:53;;;;;;;7.35;1.38;;;16.10;99.90;;;;;;4991767;28;20068;-91
2023/08/17 05:06:18;;;;;;;7.60;1.80;;;16.10;99.90;;;;;;4995690;28;20061;-91
2023/08/17 05:08:44;;;;;;;5.45;1.40;;;16.20;99.90;;;;;;4990536;28;20033;-91
2023/08/17 05:11:10;;;;;;;7.65;1.70;;;16.10;99.90;;;;;;4994410;28;20088;-91
2023/08/17 05:13:35;;;;;;;5.40;1.40;;;16.20;99.90;;;;;;4993210;28;20022;-91
2023/08/17 05:16:01;;;;;;;4.97;1.30;;;16.20;99.90;;;;;;4993952;28;20239;-91
2023/08/17 05:18:26;;;;;;;6.53;1.42;;;16.30;99.90;;;;;;4996304;28;20065;-91
2023/08/17 05:20:52;;;;;;;4.45;1.20;;;16.30;99.90;;;;;;4992769;28;20022;-91
2023/08/17 05:23:17;;;;;;;8.18;1.58;;;16.30;99.90;;;;;;4994121;28;20029;-91
2023/08/17 05:25:47;;;;;;;6.05;1.20;;;16.30;99.90;;;;;;4999927;28;20026;-92
2023/08/17 05:28:12;;;;;;;5.15;1.70;;;16.40;99.90;;;;;;4994417;28;20034;-91
2023/08/17 05:30:38;;;;;;;10.13;1.20;;;16.40;99.90;;;;;;4998716;28;20367;-91
2023/08/17 05:33:04;;;;;;;6.13;0.80;;;16.50;99.90;;;;;;4994504;28;20026;-91
2023/08/17 05:35:29;;;;;;;5.90;1.45;;;16.60;99.90;;;;;;4996966;28;20120;-90
2023/08/17 05:37:55;;;;;;;5.75;1.30;;;16.60;99.90;;;;;;4997987;28;20022;-91
2023/08/17 05:40:20;;;;;;;8.65;2.17;;;16.60;99.90;;;;;;4988102;28;20072;-90
2023/08/17 05:42:46;;;;;;;7.03;1.23;;;16.60;99.90;;;;;;4993476;28;20033;-90
2023/08/17 05:45:12;;;;;;;9.15;1.90;;;16.70;99.90;;;;;;4991421;28;20113;-90
2023/08/17 05:47:37;;;;;;;7.13;1.27;;;16.70;99.90;;;;;;5004155;28;20116;-91
2023/08/17 05:50:03;;;;;;;6.72;1.00;;;16.80;99.90;;;;;;4993333;28;20077;-91
2023/08/17 05:52:28;;;;;;;5.90;1.65;;;16.80;99.90;;;;;;4994226;28;20026;-90
2023/08/17 05:54:54;;;;;;;5.82;1.40;;;16.90;99.90;;;;;;4994407;28;20054;-90
2023/08/17 05:57:19;;;;;;;4.85;1.30;;;16.90;99.90;;;;;;4995095;28;20030;-91
2023/08/17 05:59:45;;;;;;;4.25;1.30;;;17.00;99.90;;;;;;4996013;28;20375;-91
2023/08/17 06:02:10;;;;;;;8.10;1.10;;;17.10;99.90;;;;;;4998129;28;20022;-90
2023/08/17 06:04:36;;;;;;;8.43;1.20;;;17.10;99.90;;;;;;4994986;28;20096;-91
2023/08/17 06:07:02;;;;;;;5.28;1.10;;;17.20;99.90;;;;;;4994007;28;20076;-91
2023/08/17 06:09:27;;;;;;;4.90;1.13;;;17.30;99.90;;;;;;4995501;28;20595;-91
2023/08/17 06:11:53;;;;;;;4.30;1.70;;;17.40;99.90;;;;;;4996887;28;20026;-93
2023/08/17 06:14:18;;;;;;;4.90;1.10;;;17.50;99.90;;;;;;5004275;28;20086;-92
2023/08/17 06:16:44;;;;;;;8.13;1.15;;;17.50;99.90;;;;;;4997060;28;20029;-91
2023/08/17 06:19:09;;;;;;;4.70;1.30;;;17.70;99.90;;;;;;4997461;28;20031;-91
2023/08/17 06:21:38;;;;;;;10.15;1.67;;;17.80;99.90;;;;;;5001167;28;20397;-91
2023/08/17 06:24:04;;;;;;;6.00;1.20;;;17.90;99.90;;;;;;5007906;28;20033;-90
2023/08/17 06:26:30;;;;;;;3.95;1.23;;;18.00;99.90;;;;;;5001577;28;20064;-91
2023/08/17 06:28:56;;;;;;;3.35;0.80;;;18.10;99.90;;;;;;4995069;28;20498;-89
2023/08/17 06:31:27;;;;;;;5.35;0.77;;;18.20;99.90;;;;;;4996529;28;20191;-91
2023/08/17 06:33:53;;;;;;;4.32;0.98;;;18.40;99.90;;;;;;4997132;28;20088;-91
2023/08/17 06:36:18;;;;;;;7.57;0.90;;;18.50;99.90;;;;;;4994810;28;20018;-92
2023/08/17 06:38:44;;;;;;;4.40;0.90;;;18.60;99.90;;;;;;4995005;28;20030;-89
2023/08/17 06:41:10;;;;;;;3.40;0.77;;;18.60;99.90;;;;;;5001246;28;20040;-88
2023/08/17 06:43:35;;;;;;;6.15;1.35;;;18.70;99.90;;;;;;4991337;28;20992;-89
2023/08/17 06:46:01;;;;;;;4.75;1.00;;;18.70;99.90;;;;;;4995600;28;20072;-89
2023/08/17 06:48:27;;;;;;;4.47;0.95;;;18.60;99.90;;;;;;4994717;28;20029;-88
2023/08/17 06:50:53;;;;;;;7.28;1.08;;;18.60;99.90;;;;;;4999690;28;20030;-91
2023/08/17 06:53:19;;;;;;;5.28;1.13;;;18.50;99.90;;;;;;5010031;28;20098;-91
2023/08/17 06:55:44;;;;;;;7.20;1.48;;;18.50;99.90;;;;;;5009035;28;20068;-91
2023/08/17 06:58:10;;;;;;;3.22;0.77;;;18.40;99.90;;;;;;5003984;28;20038;-92
2023/08/17 07:00:35;;;;;;;4.85;1.33;;;18.40;99.90;;;;;;4998080;28;20386;-91
2023/08/17 07:03:01;;;;;;;4.93;1.00;;;18.40;99.90;;;;;;4996699;28;20433;-91
2023/08/17 07:05:27;;;;;;;3.28;0.80;;;18.50;99.90;;;;;;4995855;28;20026;-92
2023/08/17 07:07:53;;;;;;;3.78;0.70;;;18.50;99.90;;;;;;4994350;28;20033;-91
2023/08/17 07:10:19;;;;;;;4.13;0.73;;;18.50;99.90;;;;;;4995198;28;20064;-92
2023/08/17 07:12:45;;;;;;;3.60;0.77;;;18.60;99.90;;;;;;4996907;28;20117;-91
2023/08/17 07:15:10;;;;;;;5.72;1.20;;;18.60;99.90;;;;;;5001775;28;20102;-89
2023/08/17 07:17:36;;;;;;;5.95;0.98;;;18.60;99.90;;;;;;4998800;28;20056;-89
2023/08/17 07:20:03;;;;;;;4.75;0.80;;;18.80;99.90;;;;;;4990351;28;20040;-91
2023/08/17 07:22:29;;;;;;;3.28;1.10;;;18.80;99.90;;;;;;4988189;28;20052;-91
2023/08/17 07:24:55;;;;;;;3.53;1.00;;;18.90;99.90;;;;;;5001622;28;20034;-91
2023/08/17 07:27:21;;;;;;;5.57;0.95;;;19.00;99.90;;;;;;4993766;28;20097;-89
2023/08/17 07:29:46;;;;;;;4.43;0.80;;;19.00;99.90;;;;;;4999178;28;20042;-91
2023/08/17 07:32:12;;;;;;;6.82;1.13;;;19.00;99.90;;;;;;4990492;28;20048;-90
2023/08/17 07:34:37;;;;;;;10.98;2.42;;;19.10;99.90;;;;;;4997759;28;20041;-92
2023/08/17 07:37:04;;;;;;;5.43;1.55;;;19.20;99.90;;;;;;5000890;28;20026;-90
2023/08/17 07:39:30;;;;;;;5.53;0.77;;;19.40;99.90;;;;;;4991242;28;20025;-91
2023/08/17 07:41:56;;;;;;;5.25;0.80;;;19.60;99.90;;;;;;5003124;28;20029;-91
2023/08/17 07:44:21;;;;;;;7.95;1.65;;;19.70;99.90;;;;;;5004259;28;20029;-92
2023/08/17 07:46:47;;;;;;;3.88;0.88;;;19.60;99.90;;;;;;5007407;28;20030;-92
2023/08/17 07:49:15;;;;;;;3.38;0.88;;;19.50;99.90;;;;;;5005908;28;20562;-91
2023/08/17 07:51:41;;;;;;;4.60;1.45;;;19.40;99.90;;;;;;5001031;28;20041;-92
2023/08/17 07:54:07;;;;;;;3.92;1.10;;;19.40;99.90;;;;;;5006796;28;20041;-90
2023/08/17 07:56:32;;;;;;;5.50;1.10;;;19.30;99.90;;;;;;5006763;28;20063;-92
2023/08/17 07:58:58;;;;;;;5.30;0.95;;;19.30;99.90;;;;;;5002705;28;20022;-90
2023/08/17 08:01:24;;;;;;;5.03;1.70;;;19.20;99.90;;;;;;5010048;28;20555;-91
2023/08/17 08:03:49;;;;;;;2.65;0.80;;;19.00;99.90;;;;;;4998453;28;20034;-90
2023/08/17 08:06:15;;;;;;;5.15;1.23;;;19.00;99.90;;;;;;4994913;28;20058;-92
2023/08/17 08:08:41;;;;;;;3.58;0.90;;;19.00;99.90;;;;;;4999066;28;20053;-90
2023/08/17 08:11:06;;;;;;;6.85;1.60;;;19.20;99.90;;;;;;4998664;28;20030;-91
2023/08/17 08:13:32;;;;;;;4.70;1.23;;;19.20;99.90;;;;;;4995515;28;20120;-91
2023/08/17 08:15:59;;;;;;;9.57;1.17;;;19.30;99.90;;;;;;4994101;28;20052;-90
2023/08/17 08:18:24;;;;;;;6.47;1.30;;;19.30;99.90;;;;;;4993806;28;20080;-91
2023/08/17 08:20:50;;;;;;;3.70;0.85;;;19.40;99.90;;;;;;4994130;28;20030;-92
2023/08/17 08:23:16;;;;;;;4.70;1.00;;;19.50;99.90;;;;;;4991193;28;20029;-91
2023/08/17 08:25:42;;;;;;;5.95;1.58;;;19.60;99.90;;;;;;4996088;28;20402;-89
2023/08/17 08:28:08;;;;;;;4.10;0.90;;;19.60;99.90;;;;;;4992281;28;20026;-90
2023/08/17 08:30:34;;;;;;;4.20;1.02;;;19.60;99.90;;;;;;4990041;28;20062;-91
2023/08/17 08:33:01;;;;;;;3.53;0.95;;;19.60;99.90;;;;;;5003749;28;20432;-90
2023/08/17 08:35:28;;;;;;;4.18;0.75;;;19.50;99.90;;;;;;5000417;28;20076;-90
2023/08/17 08:37:55;;;;;;;3.83;1.00;;;19.50;99.90;;;;;;4992284;28;20038;-89
2023/08/17 08:40:30;;;;;;;4.70;1.00;;;19.40;99.90;;;;;;4995099;28;20026;-90
2023/08/17 08:42:56;;;;;;;4.78;1.33;;;19.40;99.90;;;;;;4992590;28;20517;-89
2023/08/17 08:45:23;;;;;;;5.03;1.10;;;19.30;99.90;;;;;;5008895;28;20492;-90
2023/08/17 08:47:50;;;;;;;2.47;1.05;;;19.20;99.90;;;;;;5007511;28;20033;-91
2023/08/17 08:50:19;;;;;;;5.30;1.20;;;19.20;99.90;;;;;;5001212;28;20067;-91
2023/08/17 08:52:59;;;;;;;5.18;1.20;;;19.20;99.90;;;;;;4995990;28;20061;-91
2023/08/17 08:55:28;;;;;;;5.07;1.20;;;19.20;99.90;;;;;;4996840;28;20054;-90
2023/08/17 08:57:55;;;;;;;5.57;1.38;;;19.20;99.90;;;;;;4992027;28;20034;-91
2023/08/17 09:00:21;;;;;;;5.32;1.70;;;19.20;99.90;;;;;;4989099;28;20030;-91
2023/08/17 09:02:49;;;;;;;6.60;1.30;;;19.20;99.90;;;;;;4989783;28;20030;-89
2023/08/17 09:05:15;;;;;;;6.15;1.52;;;19.20;99.90;;;;;;4985146;28;20029;-90
2023/08/17 09:07:42;;;;;;;4.90;1.63;;;19.20;99.90;;;;;;4988498;28;20026;-92
2023/08/17 09:10:09;;;;;;;5.30;1.40;;;19.10;99.90;;;;;;4979700;28;20494;-90
2023/08/17 09:12:35;;;;;;;8.77;1.60;;;19.00;99.90;;;;;;4982332;28;20030;-91
2023/08/17 09:15:01;;;;;;;5.03;1.52;;;19.00;99.90;;;;;;4992207;28;20364;-91
2023/08/17 09:17:27;;;;;;;7.25;1.65;;;18.90;99.90;;;;;;4995127;28;20029;-91
2023/08/17 09:19:53;;;;;;;6.53;1.48;;;19.00;99.90;;;;;;4988397;28;20026;-90
2023/08/17 09:22:41;;;;;;;4.70;1.38;;;19.20;99.90;;;;;;5003990;28;20529;-91
2023/08/17 09:25:10;;;;;;;8.70;2.25;;;19.30;99.90;;;;;;4982230;28;20120;-90
2023/08/17 09:27:37;;;;;;;7.18;2.22;;;19.30;99.90;;;;;;4980949;28;20026;-90
2023/08/17 09:30:08;;;;;;;7.93;2.50;;;19.30;99.90;;;;;;5001918;28;20034;-89
2023/08/17 09:32:34;;;;;;;8.95;3.40;;;19.20;99.90;;;;;;5001457;28;20044;-90
2023/08/17 09:35:05;;;;;;;7.60;1.83;;;19.20;99.90;;;;;;4995695;28;20037;-90
2023/08/17 09:37:31;;;;;;;8.93;2.42;;;19.20;99.90;;;;;;4994735;28;20113;-90
2023/08/17 09:39:56;;;;;;;7.32;2.60;;;19.20;99.90;;;;;;4991437;28;20540;-90
2023/08/17 09:42:22;;;;;;;8.68;2.28;;;19.30;99.90;;;;;;4994549;28;20033;-89
2023/08/17 09:44:49;;;;;;;9.02;2.97;;;19.40;99.90;;;;;;4997652;28;20034;-90
2023/08/17 09:47:17;;;;;;;5.22;2.20;;;19.50;99.90;;;;;;4999412;28;20034;-90
2023/08/17 09:49:48;;;;;;;8.52;2.75;;;19.60;99.90;;;;;;5001501;28;20042;-90
2023/08/17 09:52:14;;;;;;;8.80;3.08;;;19.70;99.90;;;;;;4989809;28;20027;-90
2023/08/17 09:54:41;;;;;;;7.13;2.83;;;19.80;99.90;;;;;;5004763;28;20046;-91
2023/08/17 09:57:07;;;;;;;7.85;3.13;;;19.90;99.90;;;;;;4994686;28;20058;-90
2023/08/17 09:59:33;;;;;;;6.05;2.83;;;19.90;99.90;;;;;;4991785;28;20021;-90
2023/08/17 10:02:00;;;;;;;8.25;3.58;;;20.00;99.90;;;;;;4991814;28;20351;-90
2023/08/17 10:04:27;;;;;;;7.53;3.25;;;19.90;99.90;;;;;;4997995;28;20045;-90
2023/08/17 10:07:02;;;;;;;11.00;3.20;;;19.80;99.90;;;;;;4998591;28;20026;-89
2023/08/17 10:09:34;;;;;;;8.00;3.35;;;19.90;99.90;;;;;;4998785;28;20034;-89
2023/08/17 10:12:06;;;;;;;9.70;2.92;;;20.00;99.90;;;;;;4989479;28;20148;-89
2023/08/17 10:14:36;;;;;;;9.07;2.88;;;20.10;99.90;;;;;;4995479;28;20029;-89
2023/08/17 10:17:15;;;;;;;7.00;2.45;;;20.20;99.90;;;;;;4997153;28;20030;-91
2023/08/17 10:19:51;;;;;;;8.85;3.20;;;20.30;99.90;;;;;;4989050;28;20072;-90
2023/08/17 10:22:29;;;;;;;7.85;3.08;;;20.40;99.90;;;;;;4990752;28;20117;-90
2023/08/17 10:24:57;;;;;;;6.72;2.88;;;20.60;99.90;;;;;;5006688;28;20053;-90
2023/08/17 10:27:23;;;;;;;8.95;2.83;;;20.70;99.90;;;;;;4995607;28;20035;-90
2023/08/17 10:29:51;;;;;;;10.77;3.42;;;20.70;99.90;;;;;;4993327;28;20042;-90
2023/08/17 10:32:17;;;;;;;7.97;3.13;;;20.90;99.90;;;;;;4994730;28;20022;-90
2023/08/17 10:34:43;;;;;;;6.15;3.33;;;21.00;99.90;;;;;;5008463;28;20544;-91
2023/08/17 10:37:09;;;;;;;9.55;3.63;;;20.90;99.90;;;;;;4998738;28;20080;-90
2023/08/17 10:39:37;;;;;;;9.80;2.95;;;20.90;99.90;;;;;;5002647;28;20033;-90
2023/08/17 10:42:02;;;;;;;6.72;3.13;;;21.00;99.90;;;;;;4996672;28;20034;-90
2023/08/17 10:44:45;;;;;;;9.40;3.25;;;21.10;99.90;;;;;;4996005;28;20026;-89
2023/08/17 10:47:24;;;;;;;8.20;3.65;;;21.00;99.90;;;;;;4996906;28;20068;-92
2023/08/17 10:50:04;;;;;;;8.38;3.85;;;20.90;99.90;;;;;;4997155;28;20049;-90
2023/08/17 10:52:32;;;;;;;5.43;3.50;;;20.90;99.90;;;;;;5004722;28;20435;-90
2023/08/17 10:55:05;;;;;;;10.38;4.70;;;20.80;99.90;;;;;;5007483;28;20061;-91
2023/08/17 10:57:32;;;;;;;6.70;3.83;;;20.80;99.90;;;;;;5002037;28;20525;-91
2023/08/17 11:00:26;;;;;;;9.55;4.38;;;20.70;99.90;;;;;;5022414;28;20038;-90
2023/08/17 11:02:58;;;;;;;10.45;3.85;;;20.70;99.90;;;;;;5004448;28;20067;-90
2023/08/17 11:05:40;;;;;;;8.13;4.22;;;20.60;99.90;;;;;;4998882;28;20025;-90
2023/08/17 11:08:10;;;;;;;8.75;3.85;;;20.50;99.90;;;;;;4996147;28;20120;-90
2023/08/17 11:10:37;;;;;;;11.45;4.75;;;20.60;99.90;;;;;;4998955;28;20048;-89
2023/08/17 11:13:04;;;;;;;9.25;3.90;;;20.50;99.90;;;;;;4997002;28;20490;-90
2023/08/17 11:15:44;;;;;;;10.65;4.50;;;20.50;99.90;;;;;;4992822;28;20213;-90
2023/08/17 11:18:11;;;;;;;10.65;4.78;;;20.60;99.90;;;;;;4988493;28;20027;-90
2023/08/17 11:20:39;;;;;;;9.20;4.60;;;20.60;99.90;;;;;;4997545;28;20065;-90
2023/08/17 11:23:06;;;;;;;12.32;5.22;;;20.60;99.90;;;;;;5005975;28;20018;-91
2023/08/17 11:25:32;;;;;;;8.38;4.25;;;20.60;99.90;;;;;;4997025;28;20056;-89
2023/08/17 11:27:59;;;;;;;7.43;4.65;;;20.60;99.90;;;;;;4999329;28;20030;-88
2023/08/17 11:30:26;;;;;;;7.45;4.32;;;20.50;99.90;;;;;;4997215;28;20041;-91
2023/08/17 11:32:52;;;;;;;5.63;2.97;;;20.50;99.90;;;;;;4996514;28;20026;-91
2023/08/17 11:35:18;;;;;;;9.13;5.07;;;20.60;99.90;;;;;;4998823;28;20026;-90
2023/08/17 11:37:44;;;;;;;8.43;4.38;;;20.80;99.90;;;;;;4996042;28;20430;-90
2023/08/17 11:40:11;;;;;;;12.05;5.65;;;20.90;99.90;;;;;;4997006;28;20041;-91
2023/08/17 11:42:37;;;;;;;8.40;5.07;;;20.90;99.90;;;;;;4999456;28;20441;-91
2023/08/17 11:45:09;;;;;;;15.68;5.07;;;21.00;99.90;;;;;;5008859;28;20030;-92
2023/08/17 11:47:37;;;;;;;11.45;5.10;;;21.00;99.90;;;;;;5009830;28;20501;-91
2023/08/17 11:50:04;;;;;;;17.95;6.03;;;21.00;99.90;;;;;;4995833;28;20494;-91
2023/08/17 11:52:32;;;;;;;8.18;4.47;;;21.10;99.90;;;;;;4994752;28;20030;-92
2023/08/17 11:54:58;;;;;;;9.10;4.53;;;21.10;99.90;;;;;;5008427;28;20048;-88
2023/08/17 11:57:24;;;;;;;10.55;5.05;;;21.20;99.90;;;;;;4985141;28;20034;-91
2023/08/17 11:59:55;;;;;;;8.27;3.85;;;21.20;99.90;;;;;;4991872;28;20389;-91
2023/08/17 12:02:22;;;;;;;9.85;4.65;;;21.10;99.90;;;;;;4996161;28;20044;-93
2023/08/17 12:04:48;;;;;;;11.13;4.70;;;21.10;99.90;;;;;;4983100;28;20030;-89
2023/08/17 12:07:14;;;;;;;9.52;3.95;;;21.00;99.90;;;;;;4993614;28;20072;-90
2023/08/17 12:09:40;;;;;;;10.00;4.40;;;20.90;99.90;;;;;;5001294;28;20037;-89
2023/08/17 12:12:07;;;;;;;8.75;4.25;;;20.80;99.90;;;;;;4992411;28;20046;-90
2023/08/17 12:14:33;;;;;;;8.25;3.63;;;20.80;99.90;;;;;;4998581;28;20022;-90
2023/08/17 12:16:58;;;;;;;8.23;4.13;;;20.80;99.90;;;;;;4996939;28;20032;-89
2023/08/17 12:19:27;;;;;;;8.07;4.07;;;20.90;99.90;;;;;;5008649;28;20022;-88
2023/08/17 12:21:53;;;;;;;11.70;4.88;;;20.90;99.90;;;;;;4995965;28;20180;-89
2023/08/17 12:24:19;;;;;;;9.48;4.30;;;21.00;99.90;;;;;;4994682;28;20494;-89
2023/08/17 12:26:46;;;;;;;10.93;4.72;;;21.10;99.90;;;;;;4997462;28;20032;-89
2023/08/17 12:29:12;;;;;;;11.95;4.72;;;21.10;99.90;;;;;;4994673;28;20038;-88
2023/08/17 12:31:38;;;;;;;7.18;4.00;;;21.30;99.90;;;;;;4990108;28;20026;-88
2023/08/17 12:34:05;;;;;;;6.88;4.00;;;21.40;99.90;;;;;;4996106;28;20021;-88
2023/08/17 12:36:31;;;;;;;9.15;4.05;;;21.40;99.90;;;;;;5007747;28;20034;-89
2023/08/17 12:38:57;;;;;;;7.20;4.40;;;21.40;99.90;;;;;;5008078;28;20541;-89
2023/08/17 12:41:22;;;;;;;10.63;4.63;;;21.50;99.90;;;;;;4986794;28;20030;-90
2023/08/17 12:43:48;;;;;;;7.93;4.60;;;21.50;99.90;;;;;;4995597;28;20033;-89